createdAt,value
2022-07-26T00:01:48.476Z,3.22
2022-07-26T00:04:15.948Z,3.60
2022-07-26T00:06:43.631Z,3.95
2022-07-26T00:09:11.524Z,3.85
2022-07-26T00:11:39.090Z,3.88
2022-07-26T00:14:08.906Z,3.95
2022-07-26T00:16:37.262Z,4.70
2022-07-26T00:19:07.747Z,3.70
2022-07-26T00:21:37.314Z,3.03
2022-07-26T00:24:08.789Z,3.58
2022-07-26T00:26:36.341Z,3.63
2022-07-26T00:29:05.001Z,3.60
2022-07-26T00:31:33.009Z,4.25
2022-07-26T00:34:00.524Z,3.88
2022-07-26T00:36:28.931Z,3.47
2022-07-26T00:38:56.211Z,4.20
2022-07-26T00:41:24.853Z,3.03
2022-07-26T00:43:59.725Z,3.97
2022-07-26T00:46:27.563Z,4.00
2022-07-26T00:48:55.229Z,3.65
2022-07-26T00:51:22.805Z,3.80
2022-07-26T00:53:50.892Z,3.70
2022-07-26T00:56:18.481Z,3.40
2022-07-26T00:58:45.880Z,4.38
2022-07-26T01:01:13.331Z,4.30
2022-07-26T01:03:41.455Z,3.80
2022-07-26T01:06:09.367Z,3.35
2022-07-26T01:08:36.726Z,3.90
2022-07-26T01:11:03.995Z,4.60
2022-07-26T01:13:35.063Z,3.78
2022-07-26T01:16:03.991Z,4.35
2022-07-26T01:18:31.390Z,3.42
2022-07-26T01:21:13.313Z,3.72
2022-07-26T01:23:43.685Z,3.63
2022-07-26T01:26:11.352Z,3.87
2022-07-26T01:28:40.584Z,4.03
2022-07-26T01:31:09.105Z,3.53
2022-07-26T01:33:36.876Z,3.65
2022-07-26T01:36:04.329Z,3.97
2022-07-26T01:38:31.605Z,3.67
2022-07-26T01:40:59.001Z,3.92
2022-07-26T01:43:26.430Z,3.55
2022-07-26T01:45:55.193Z,3.75
2022-07-26T01:48:22.873Z,3.75
2022-07-26T01:50:50.225Z,3.63
2022-07-26T01:53:17.663Z,4.03
2022-07-26T01:55:45.115Z,3.38
2022-07-26T01:58:12.372Z,3.85
2022-07-26T02:00:39.749Z,4.00
2022-07-26T02:03:07.243Z,3.85
2022-07-26T02:05:34.756Z,3.72
2022-07-26T02:08:02.189Z,3.38
2022-07-26T02:10:49.754Z,3.88
2022-07-26T02:13:17.649Z,4.32
2022-07-26T02:15:45.176Z,3.80
2022-07-26T02:18:12.861Z,3.65
2022-07-26T02:20:40.258Z,3.58
2022-07-26T02:23:07.586Z,3.63
2022-07-26T02:25:34.927Z,4.15
2022-07-26T02:28:02.346Z,3.95
2022-07-26T02:30:29.745Z,3.85
2022-07-26T02:32:57.091Z,3.58
2022-07-26T02:35:24.524Z,3.35
2022-07-26T02:37:51.877Z,4.38
2022-07-26T02:40:19.712Z,4.20
2022-07-26T02:42:47.114Z,4.40
2022-07-26T02:45:14.523Z,3.95
2022-07-26T02:47:50.950Z,4.05
2022-07-26T02:50:24.893Z,3.60
2022-07-26T02:52:54.584Z,4.05
2022-07-26T02:55:24.924Z,4.20
2022-07-26T02:57:52.704Z,4.18
2022-07-26T03:00:24.892Z,4.25
2022-07-26T03:02:53.074Z,4.50
2022-07-26T03:05:21.601Z,3.88
2022-07-26T03:07:49.145Z,3.92
2022-07-26T03:10:16.917Z,4.18
2022-07-26T03:12:45.430Z,4.07
2022-07-26T03:15:12.919Z,3.63
2022-07-26T03:17:40.488Z,3.97
2022-07-26T03:20:08.886Z,3.80
2022-07-26T03:22:36.298Z,4.13
2022-07-26T03:25:04.232Z,4.35
2022-07-26T03:27:31.569Z,4.55
2022-07-26T03:29:59.881Z,3.72
2022-07-26T03:32:27.303Z,4.53
2022-07-26T03:34:54.560Z,4.20
2022-07-26T03:37:21.913Z,4.32
2022-07-26T03:39:49.416Z,4.53
2022-07-26T03:42:17.556Z,3.80
2022-07-26T03:44:44.796Z,4.00
2022-07-26T03:47:12.119Z,4.68
2022-07-26T03:49:39.505Z,4.45
2022-07-26T03:52:07.028Z,4.75
2022-07-26T03:54:34.354Z,4.05
2022-07-26T03:57:01.679Z,4.47
2022-07-26T03:59:29.062Z,4.53
2022-07-26T04:01:56.590Z,4.60
2022-07-26T04:04:25.161Z,4.45
2022-07-26T04:06:52.829Z,4.78
2022-07-26T04:09:20.226Z,4.63
2022-07-26T04:11:48.698Z,4.60
2022-07-26T04:14:17.196Z,4.85
2022-07-26T04:16:44.633Z,4.55
2022-07-26T04:19:12.085Z,4.43
2022-07-26T04:21:39.470Z,5.43
2022-07-26T04:24:07.694Z,4.85
2022-07-26T04:26:35.252Z,5.47
2022-07-26T04:29:02.687Z,5.63
2022-07-26T04:31:34.860Z,4.78
2022-07-26T04:34:03.833Z,4.88
2022-07-26T04:36:31.029Z,5.22
2022-07-26T04:38:58.370Z,5.57
2022-07-26T04:41:25.908Z,5.20
2022-07-26T04:43:53.164Z,5.45
2022-07-26T04:46:20.600Z,4.97
2022-07-26T04:48:48.042Z,4.90
2022-07-26T04:51:15.416Z,6.00
2022-07-26T04:53:42.870Z,5.60
2022-07-26T04:56:10.631Z,6.20
2022-07-26T04:58:37.956Z,6.28
2022-07-26T05:01:12.425Z,5.70
2022-07-26T05:03:40.090Z,5.75
2022-07-26T05:06:07.666Z,6.50
2022-07-26T05:08:34.991Z,5.70
2022-07-26T05:11:02.350Z,6.00
2022-07-26T05:13:31.017Z,5.85
2022-07-26T05:15:59.968Z,6.07
2022-07-26T05:18:31.589Z,6.15
2022-07-26T05:20:59.513Z,6.03
2022-07-26T05:23:26.783Z,6.55
2022-07-26T05:25:54.109Z,6.03
2022-07-26T05:28:21.391Z,6.90
2022-07-26T05:30:48.747Z,6.40
2022-07-26T05:33:16.690Z,6.00
2022-07-26T05:35:44.319Z,5.68
2022-07-26T05:38:11.772Z,6.50
2022-07-26T05:40:39.265Z,6.47
2022-07-26T05:43:06.620Z,6.95
2022-07-26T05:45:33.971Z,6.80
2022-07-26T05:48:01.308Z,9.27
2022-07-26T05:50:28.862Z,9.13
2022-07-26T05:52:56.137Z,9.43
2022-07-26T05:55:23.526Z,9.13
2022-07-26T05:57:50.843Z,9.45
2022-07-26T06:00:19.175Z,9.48
2022-07-26T06:02:46.535Z,9.07
2022-07-26T06:05:15.903Z,9.27
2022-07-26T06:07:43.349Z,8.82
2022-07-26T06:10:10.744Z,8.05
2022-07-26T06:12:38.178Z,9.05
2022-07-26T06:15:15.549Z,7.97
2022-07-26T06:17:43.678Z,9.32
2022-07-26T06:20:11.615Z,7.55
2022-07-26T06:22:38.928Z,7.88
2022-07-26T06:25:07.064Z,8.70
2022-07-26T06:27:34.430Z,8.98
2022-07-26T06:30:01.827Z,9.77
2022-07-26T06:32:29.062Z,8.63
2022-07-26T06:34:56.315Z,9.00
2022-07-26T06:37:23.675Z,9.27
2022-07-26T06:39:50.875Z,9.13
2022-07-26T06:42:18.272Z,9.20
2022-07-26T06:44:46.456Z,9.38
2022-07-26T06:47:13.744Z,9.30
2022-07-26T06:49:41.056Z,10.00
2022-07-26T06:52:08.310Z,10.98
2022-07-26T06:54:35.612Z,10.15
2022-07-26T06:57:02.885Z,10.75
2022-07-26T06:59:30.175Z,9.65
2022-07-26T07:01:59.404Z,10.48
2022-07-26T07:07:06.221Z,9.48
2022-07-26T07:09:35.318Z,8.23
2022-07-26T07:12:10.075Z,8.93
2022-07-26T07:14:39.241Z,9.48
2022-07-26T07:17:12.918Z,9.23
2022-07-26T07:19:42.332Z,9.90
2022-07-26T07:22:12.305Z,9.27
2022-07-26T07:24:41.233Z,10.30
2022-07-26T07:27:10.509Z,10.82
2022-07-26T07:29:41.342Z,10.18
2022-07-26T07:32:18.381Z,10.13
2022-07-26T07:34:48.359Z,10.77
2022-07-26T07:37:17.357Z,11.68
2022-07-26T07:39:50.011Z,12.30
2022-07-26T07:42:19.398Z,13.45
2022-07-26T07:44:47.305Z,11.50
2022-07-26T07:47:14.868Z,12.75
2022-07-26T07:49:42.435Z,12.00
2022-07-26T07:52:09.658Z,12.30
2022-07-26T07:54:36.998Z,12.85
2022-07-26T07:57:04.494Z,13.50
2022-07-26T07:59:31.873Z,14.50
2022-07-26T08:01:59.402Z,13.00
2022-07-26T08:04:26.728Z,13.77
2022-07-26T08:06:54.193Z,13.48
2022-07-26T08:09:21.504Z,14.60
2022-07-26T08:11:50.625Z,15.27
2022-07-26T08:14:19.534Z,15.48
2022-07-26T08:16:47.046Z,15.88
2022-07-26T08:19:15.674Z,15.00
2022-07-26T08:21:46.739Z,15.95
2022-07-26T08:24:14.609Z,16.48
2022-07-26T08:26:41.957Z,14.90
2022-07-26T08:29:09.476Z,14.85
2022-07-26T08:31:37.438Z,12.45
2022-07-26T08:34:28.049Z,14.90
2022-07-26T08:37:16.109Z,15.15
2022-07-26T08:39:42.707Z,14.40
2022-07-26T08:42:16.020Z,13.98
2022-07-26T08:44:48.096Z,12.88
2022-07-26T08:47:35.150Z,12.63
2022-07-26T08:50:07.802Z,12.93
2022-07-26T08:52:35.431Z,12.32
2022-07-26T08:55:02.729Z,10.75
2022-07-26T08:57:30.061Z,10.93
2022-07-26T09:00:29.805Z,9.15
2022-07-26T09:02:59.178Z,8.73
2022-07-26T09:05:33.877Z,8.20
2022-07-26T09:08:22.593Z,7.72
2022-07-26T09:10:50.028Z,6.63
2022-07-26T09:13:17.459Z,7.30
2022-07-26T09:15:44.867Z,6.15
2022-07-26T09:18:30.669Z,6.25
2022-07-26T09:20:58.075Z,6.05
2022-07-26T09:23:25.320Z,5.68
2022-07-26T09:25:52.690Z,5.82
2022-07-26T09:28:25.590Z,5.05
2022-07-26T09:31:00.100Z,4.93
2022-07-26T09:33:43.329Z,5.25
2022-07-26T09:36:10.940Z,4.90
2022-07-26T09:38:47.219Z,5.57
2022-07-26T09:41:31.845Z,4.80
2022-07-26T09:44:03.882Z,5.00
2022-07-26T09:46:34.390Z,5.15
2022-07-26T09:49:21.138Z,5.57
2022-07-26T09:51:51.844Z,4.78
2022-07-26T09:54:41.524Z,4.90
2022-07-26T09:57:08.908Z,5.45
2022-07-26T09:59:36.286Z,5.28
2022-07-26T10:02:03.691Z,5.60
2022-07-26T10:04:31.628Z,5.35
2022-07-26T10:06:59.633Z,5.70
2022-07-26T10:09:38.481Z,4.85
2022-07-26T10:12:12.955Z,5.55
2022-07-26T10:14:46.579Z,5.63
2022-07-26T10:17:31.758Z,5.43
2022-07-26T10:20:41.063Z,5.13
2022-07-26T10:23:41.967Z,5.15
2022-07-26T10:26:13.932Z,5.57
2022-07-26T10:28:42.098Z,4.95
2022-07-26T10:31:26.746Z,5.30
2022-07-26T10:33:56.673Z,5.70
2022-07-26T10:36:39.635Z,4.90
2022-07-26T10:39:16.543Z,5.75
2022-07-26T10:41:57.812Z,5.43
2022-07-26T10:44:34.283Z,5.88
2022-07-26T10:47:07.560Z,5.53
2022-07-26T10:49:57.907Z,4.90
2022-07-26T10:52:31.763Z,4.55
2022-07-26T10:55:03.559Z,5.00
2022-07-26T10:57:41.566Z,6.13
2022-07-26T11:00:27.323Z,4.32
2022-07-26T11:03:00.118Z,5.35
2022-07-26T11:05:35.155Z,4.70
2022-07-26T11:08:11.010Z,5.50
2022-07-26T11:10:46.349Z,5.03
2022-07-26T11:13:17.134Z,4.93
2022-07-26T11:15:54.420Z,4.63
2022-07-26T11:18:30.871Z,4.63
2022-07-26T11:21:11.579Z,4.40
2022-07-26T11:23:44.886Z,4.57
2022-07-26T11:26:23.566Z,4.75
2022-07-26T11:29:06.436Z,4.90
2022-07-26T11:31:50.537Z,4.88
2022-07-26T11:34:30.356Z,4.45
2022-07-26T11:37:01.025Z,4.57
2022-07-26T11:39:36.489Z,4.20
2022-07-26T11:42:13.694Z,4.63
2022-07-26T11:44:47.268Z,4.20
2022-07-26T11:47:25.461Z,4.43
2022-07-26T11:50:12.882Z,4.70
2022-07-26T11:52:42.205Z,5.15
2022-07-26T11:55:10.014Z,5.25
2022-07-26T11:57:37.516Z,4.82
2022-07-26T12:00:06.261Z,4.50
2022-07-26T12:02:39.997Z,4.20
2022-07-26T12:05:22.886Z,3.97
2022-07-26T12:08:05.237Z,4.70
2022-07-26T12:10:32.885Z,4.45
2022-07-26T12:13:15.830Z,4.72
2022-07-26T12:15:52.357Z,5.03
2022-07-26T12:18:38.196Z,4.57
2022-07-26T12:21:09.788Z,4.35
2022-07-26T12:23:55.402Z,4.00
2022-07-26T12:26:28.780Z,4.40
2022-07-26T12:28:58.343Z,4.15
2022-07-26T12:31:31.231Z,3.77
2022-07-26T12:33:59.829Z,3.58
2022-07-26T12:36:29.964Z,3.60
2022-07-26T12:41:39.276Z,3.85
2022-07-26T12:44:11.688Z,4.28
2022-07-26T12:46:40.131Z,3.63
2022-07-26T12:49:07.695Z,3.63
2022-07-26T12:51:35.254Z,3.90
2022-07-26T12:54:04.958Z,3.63
2022-07-26T12:56:33.872Z,3.60
2022-07-26T12:59:01.722Z,4.00
2022-07-26T13:01:31.437Z,3.70
2022-07-26T13:04:00.776Z,3.88
2022-07-26T13:06:28.569Z,3.28
2022-07-26T13:08:56.689Z,3.15
2022-07-26T13:11:25.026Z,3.55
2022-07-26T13:13:52.442Z,3.38
2022-07-26T13:16:20.002Z,3.80
2022-07-26T13:18:47.341Z,4.28
2022-07-26T13:21:14.756Z,3.92
2022-07-26T13:23:42.138Z,4.55
2022-07-26T13:26:09.560Z,4.32
2022-07-26T13:28:37.967Z,3.45
2022-07-26T13:31:05.865Z,3.85
2022-07-26T13:33:33.808Z,3.22
2022-07-26T13:36:01.157Z,3.42
2022-07-26T13:38:29.155Z,3.95
2022-07-26T13:40:56.584Z,4.20
2022-07-26T13:43:24.503Z,3.40
2022-07-26T13:45:51.842Z,3.30
2022-07-26T13:48:19.334Z,3.28
2022-07-26T13:50:46.794Z,4.05
2022-07-26T13:53:14.129Z,3.72
2022-07-26T13:55:41.857Z,4.20
2022-07-26T13:58:10.211Z,3.80
2022-07-26T14:00:38.345Z,4.18
2022-07-26T14:03:05.989Z,4.03
2022-07-26T14:05:34.111Z,3.88
2022-07-26T14:08:01.446Z,4.00
2022-07-26T14:10:28.703Z,3.83
2022-07-26T14:12:56.055Z,4.35
2022-07-26T14:15:23.848Z,4.28
2022-07-26T14:17:52.666Z,3.80
2022-07-26T14:20:21.576Z,3.65
2022-07-26T14:22:53.952Z,3.50
2022-07-26T14:25:26.913Z,3.20
2022-07-26T14:27:55.248Z,3.63
2022-07-26T14:30:23.305Z,3.83
2022-07-26T14:32:50.775Z,3.53
2022-07-26T14:35:18.247Z,3.88
2022-07-26T14:37:46.107Z,3.63
2022-07-26T14:40:16.262Z,3.45
2022-07-26T14:42:45.713Z,4.10
2022-07-26T14:45:14.720Z,3.20
2022-07-26T14:47:43.182Z,3.80
2022-07-26T14:50:12.671Z,4.47
2022-07-26T14:52:45.744Z,3.37
2022-07-26T14:55:14.516Z,3.70
2022-07-26T14:57:42.950Z,3.50
2022-07-26T15:00:14.870Z,3.95
2022-07-26T15:02:48.174Z,4.07
2022-07-26T15:05:17.111Z,3.47
2022-07-26T15:07:45.524Z,4.00
2022-07-26T15:10:14.617Z,3.85
2022-07-26T15:12:43.035Z,4.53
2022-07-26T15:15:11.476Z,4.78
2022-07-26T15:17:38.801Z,4.03
2022-07-26T15:20:07.244Z,4.15
2022-07-26T15:22:35.282Z,4.10
2022-07-26T15:25:02.752Z,3.72
2022-07-26T15:27:30.092Z,4.60
2022-07-26T15:30:03.531Z,4.80
2022-07-26T15:32:33.643Z,4.65
2022-07-26T15:35:01.203Z,4.65
2022-07-26T15:37:28.977Z,4.78
2022-07-26T15:39:56.410Z,4.70
2022-07-26T15:42:23.809Z,4.68
2022-07-26T15:44:52.267Z,5.90
2022-07-26T15:47:51.254Z,4.93
2022-07-26T15:50:11.981Z,5.25
2022-07-26T15:52:44.642Z,4.75
2022-07-26T15:55:13.981Z,6.03
2022-07-26T15:57:41.635Z,5.43
2022-07-26T16:00:12.156Z,4.40
2022-07-26T16:02:41.169Z,5.90
2022-07-26T16:05:10.527Z,6.57
2022-07-26T16:07:41.704Z,6.55
2022-07-26T16:10:12.381Z,5.38
2022-07-26T16:12:41.626Z,4.93
2022-07-26T16:15:11.237Z,6.22
2022-07-26T16:17:38.870Z,5.45
2022-07-26T16:20:07.952Z,6.93
2022-07-26T16:22:35.552Z,5.20
2022-07-26T16:25:05.914Z,5.45
2022-07-26T16:30:00.413Z,5.07
2022-07-26T16:32:27.753Z,4.20
2022-07-26T16:34:55.140Z,4.28
2022-07-26T16:37:22.654Z,4.70
2022-07-26T16:39:50.086Z,4.07
2022-07-26T16:42:17.551Z,6.20
2022-07-26T16:44:44.862Z,4.32
2022-07-26T16:47:12.312Z,4.00
2022-07-26T16:49:40.276Z,4.10
2022-07-26T16:52:08.376Z,11.63
2022-07-26T16:54:35.987Z,7.07
2022-07-26T16:57:03.532Z,4.35
2022-07-26T16:59:30.875Z,4.82
2022-07-26T17:02:01.642Z,3.97
2022-07-26T17:04:30.836Z,4.10
2022-07-26T17:07:23.212Z,4.53
2022-07-26T17:09:45.858Z,4.55
2022-07-26T17:12:13.460Z,4.15
2022-07-26T17:14:40.916Z,4.32
2022-07-26T17:17:08.520Z,4.03
2022-07-26T17:19:35.918Z,4.13
2022-07-26T17:22:03.507Z,4.72
2022-07-26T17:24:31.137Z,4.43
2022-07-26T17:26:58.741Z,4.55
2022-07-26T17:29:26.134Z,4.45
2022-07-26T17:31:55.217Z,3.97
2022-07-26T17:34:22.665Z,4.00
2022-07-26T17:36:58.943Z,4.13
2022-07-26T17:39:52.266Z,3.88
2022-07-26T17:42:15.412Z,4.00
2022-07-26T17:44:42.883Z,4.60
2022-07-26T17:47:27.909Z,5.20
2022-07-26T17:52:51.106Z,5.30
2022-07-26T17:55:19.728Z,5.20
2022-07-26T17:57:48.474Z,4.50
2022-07-26T18:00:22.846Z,4.03
2022-07-26T18:02:50.575Z,4.57
2022-07-26T18:05:19.672Z,3.25
2022-07-26T18:07:47.386Z,3.30
2022-07-26T18:10:14.898Z,3.17
2022-07-26T18:12:42.493Z,3.40
2022-07-26T18:15:11.505Z,3.30
2022-07-26T18:17:39.204Z,5.60
2022-07-26T18:20:07.853Z,3.58
2022-07-26T18:22:35.362Z,4.43
2022-07-26T18:25:04.051Z,3.42
2022-07-26T18:27:31.630Z,3.58
2022-07-26T18:30:00.631Z,3.35
2022-07-26T18:32:28.367Z,3.10
2022-07-26T18:34:55.799Z,3.30
2022-07-26T18:37:23.410Z,3.78
2022-07-26T18:39:55.500Z,3.10
2022-07-26T18:42:25.018Z,3.38
2022-07-26T18:44:52.745Z,3.28
2022-07-26T18:47:20.400Z,3.17
2022-07-26T18:49:47.866Z,2.85
2022-07-26T18:52:15.376Z,2.95
2022-07-26T18:54:43.726Z,4.75
2022-07-26T18:57:11.344Z,3.15
2022-07-26T18:59:38.808Z,3.13
2022-07-26T19:02:07.515Z,3.28
2022-07-26T19:04:35.661Z,3.97
2022-07-26T19:07:03.141Z,3.42
2022-07-26T19:09:30.655Z,3.47
2022-07-26T19:11:58.119Z,4.57
2022-07-26T19:14:25.716Z,3.85
2022-07-26T19:16:53.261Z,3.65
2022-07-26T19:19:20.650Z,4.20
2022-07-26T19:21:49.420Z,4.53
2022-07-26T19:24:16.768Z,3.90
2022-07-26T19:26:44.234Z,4.10
2022-07-26T19:29:11.816Z,3.80
2022-07-26T19:31:40.460Z,4.45
2022-07-26T19:34:07.865Z,3.92
2022-07-26T19:36:35.647Z,4.13
2022-07-26T19:39:04.340Z,3.65
2022-07-26T19:41:31.965Z,4.20
2022-07-26T19:43:59.708Z,4.53
2022-07-26T19:46:27.255Z,4.07
2022-07-26T19:48:58.025Z,4.47
2022-07-26T19:51:25.309Z,3.58
2022-07-26T19:53:53.115Z,3.80
2022-07-26T19:56:20.669Z,3.88
2022-07-26T19:58:49.499Z,4.30
2022-07-26T20:01:17.414Z,3.97
2022-07-26T20:03:44.654Z,3.90
2022-07-26T20:06:12.194Z,4.63
2022-07-26T20:08:39.939Z,4.00
2022-07-26T20:11:07.652Z,4.18
2022-07-26T20:13:35.404Z,4.47
2022-07-26T20:16:02.899Z,4.15
2022-07-26T20:18:30.893Z,5.05
2022-07-26T20:20:58.710Z,4.47
2022-07-26T20:23:28.028Z,4.78
2022-07-26T20:25:55.863Z,4.22
2022-07-26T20:28:23.207Z,5.80
2022-07-26T20:30:51.830Z,5.05
2022-07-26T20:33:19.463Z,4.30
2022-07-26T20:35:50.318Z,4.32
2022-07-26T20:38:22.027Z,4.63
2022-07-26T20:40:49.934Z,4.88
2022-07-26T20:43:17.803Z,4.40
2022-07-26T20:45:45.590Z,3.92
2022-07-26T20:48:12.893Z,4.32
2022-07-26T20:50:40.405Z,3.83
2022-07-26T20:53:07.815Z,4.57
2022-07-26T20:55:35.360Z,4.18
2022-07-26T20:58:02.957Z,4.07
2022-07-26T21:00:30.365Z,4.38
2022-07-26T21:02:59.179Z,4.45
2022-07-26T21:05:30.826Z,4.63
2022-07-26T21:08:00.393Z,5.78
2022-07-26T21:10:29.420Z,4.75
2022-07-26T21:13:00.310Z,5.97
2022-07-26T21:15:32.216Z,4.82
2022-07-26T21:18:01.223Z,4.78
2022-07-26T21:20:28.688Z,4.15
2022-07-26T21:23:08.210Z,4.38
2022-07-26T21:25:40.456Z,4.40
2022-07-26T21:28:07.829Z,4.53
2022-07-26T21:30:35.228Z,5.22
2022-07-26T21:33:02.563Z,4.50
2022-07-26T21:35:29.992Z,3.78
2022-07-26T21:37:57.303Z,4.45
2022-07-26T21:40:24.869Z,4.53
2022-07-26T21:42:52.169Z,4.32
2022-07-26T21:45:19.788Z,4.45
2022-07-26T21:47:47.153Z,4.32
2022-07-26T21:50:14.608Z,4.82
2022-07-26T21:52:41.833Z,4.82
2022-07-26T21:55:09.401Z,4.50
2022-07-26T21:57:37.410Z,5.00
2022-07-26T22:00:06.825Z,5.13
2022-07-26T22:02:34.384Z,5.28
2022-07-26T22:05:01.834Z,5.43
2022-07-26T22:07:29.235Z,4.90
2022-07-26T22:09:56.448Z,4.60
2022-07-26T22:12:23.813Z,4.95
2022-07-26T22:14:51.255Z,5.20
2022-07-26T22:17:18.492Z,4.22
2022-07-26T22:19:45.953Z,4.28
2022-07-26T22:22:13.325Z,4.30
2022-07-26T22:24:40.606Z,4.20
2022-07-26T22:27:08.042Z,4.30
2022-07-26T22:29:39.838Z,4.80
2022-07-26T22:32:07.551Z,4.68
2022-07-26T22:34:35.007Z,4.15
2022-07-26T22:37:02.337Z,4.22
2022-07-26T22:39:29.812Z,4.43
2022-07-26T22:42:14.735Z,5.10
2022-07-26T22:44:42.476Z,4.53
2022-07-26T22:47:09.933Z,4.07
2022-07-26T22:49:37.228Z,4.40
2022-07-26T22:52:04.913Z,4.85
2022-07-26T22:54:32.208Z,5.20
2022-07-26T22:56:59.713Z,4.50
2022-07-26T22:59:27.102Z,4.85
2022-07-26T23:01:54.417Z,4.68
2022-07-26T23:04:21.775Z,4.90
2022-07-26T23:06:49.251Z,4.95
2022-07-26T23:09:16.608Z,4.88
2022-07-26T23:11:43.918Z,5.07
2022-07-26T23:14:11.564Z,4.82
2022-07-26T23:16:39.411Z,5.00
2022-07-26T23:19:07.163Z,5.32
2022-07-26T23:21:34.408Z,4.97
2022-07-26T23:24:01.704Z,4.85
2022-07-26T23:26:29.052Z,4.90
2022-07-26T23:28:56.366Z,5.55
2022-07-26T23:31:23.978Z,5.60
2022-07-26T23:33:54.407Z,4.95
2022-07-26T23:36:28.086Z,5.00
2022-07-26T23:38:58.213Z,4.72
2022-07-26T23:41:26.997Z,4.43
2022-07-26T23:43:55.567Z,5.05
2022-07-26T23:46:23.610Z,4.95
2022-07-26T23:48:51.829Z,4.45
2022-07-26T23:51:19.743Z,4.50
2022-07-26T23:53:47.570Z,5.15
2022-07-26T23:56:15.952Z,5.40
2022-07-26T23:58:43.724Z,3.95
